KFRR/FRR METAR and TAF weather

Enter ICAO airport designator
Station Type Date Time Source
KFRR METAR 2022/06/25 22:55 UTC NOAA

KFRR 252255Z AUTO 15003KT SCT050 28/21 A3008 RMK AO1


Station Type Date Time Source
KFRR Decoded METAR 2022/06/25 22:55 UTC NOAA

Station name not available
Jun 25, 2022 - 06:55 PM EDT / 2022.06.25 2255 UTC
Wind: from the SSE (150 degrees) at 3 MPH (3 KT):0
Sky conditions: partly cloudy
Temperature: 82 F (28 C)
Dew Point: 69 F (21 C)
Relative Humidity: 65%
Pressure (altimeter): 30.08 in. Hg (1018 hPa)
ob: KFRR 252255Z AUTO 15003KT SCT050 28/21 A3008 RMK AO1
cycle: 23

Station Type Date Time Source
KFRR TAF UTC NOAA

Error!

Example: see airport list